sensor_id;sensor_type;location;lat;lon;timestamp;pressure;altitude;pressure_sealevel;temperature;humidity
11395;BME280;5753;54.402;10.220;2022-08-19T00:01:28;101240.91;;;28.17;59.62
11395;BME280;5753;54.402;10.220;2022-08-19T00:03:59;101236.56;;;28.84;56.35
11395;BME280;5753;54.402;10.220;2022-08-19T00:06:27;101240.88;;;29.51;54.42
11395;BME280;5753;54.402;10.220;2022-08-19T00:08:54;101250.59;;;28.18;58.92
11395;BME280;5753;54.402;10.220;2022-08-19T00:11:20;101253.47;;;27.60;62.43
11395;BME280;5753;54.402;10.220;2022-08-19T00:13:47;101245.94;;;28.24;59.78
11395;BME280;5753;54.402;10.220;2022-08-19T00:16:17;101248.59;;;28.41;59.29
11395;BME280;5753;54.402;10.220;2022-08-19T00:18:46;101240.16;;;27.98;61.48
11395;BME280;5753;54.402;10.220;2022-08-19T00:21:13;101237.66;;;29.29;55.08
11395;BME280;5753;54.402;10.220;2022-08-19T00:23:40;101237.81;;;29.10;55.36
11395;BME280;5753;54.402;10.220;2022-08-19T00:26:08;101237.31;;;28.88;56.13
11395;BME280;5753;54.402;10.220;2022-08-19T00:28:34;101241.00;;;27.99;60.32
11395;BME280;5753;54.402;10.220;2022-08-19T00:31:05;101235.63;;;28.85;57.45
11395;BME280;5753;54.402;10.220;2022-08-19T00:33:32;101239.53;;;28.45;58.22
11395;BME280;5753;54.402;10.220;2022-08-19T00:35:59;101229.66;;;28.64;57.21
11395;BME280;5753;54.402;10.220;2022-08-19T00:38:26;101219.09;;;28.47;58.07
11395;BME280;5753;54.402;10.220;2022-08-19T00:40:52;101221.44;;;28.01;60.07
11395;BME280;5753;54.402;10.220;2022-08-19T00:43:22;101227.06;;;28.12;59.87
11395;BME280;5753;54.402;10.220;2022-08-19T00:45:48;101218.16;;;28.31;59.20
11395;BME280;5753;54.402;10.220;2022-08-19T00:48:16;101217.06;;;27.28;63.81
11395;BME280;5753;54.402;10.220;2022-08-19T00:50:43;101202.72;;;28.04;60.11
11395;BME280;5753;54.402;10.220;2022-08-19T00:53:15;101218.59;;;28.56;58.30
11395;BME280;5753;54.402;10.220;2022-08-19T00:55:44;101222.63;;;28.47;58.48
11395;BME280;5753;54.402;10.220;2022-08-19T00:58:15;101221.34;;;28.37;59.66
11395;BME280;5753;54.402;10.220;2022-08-19T01:00:42;101213.59;;;28.67;57.19
11395;BME280;5753;54.402;10.220;2022-08-19T01:03:11;101214.69;;;29.12;56.07
11395;BME280;5753;54.402;10.220;2022-08-19T01:05:38;101211.09;;;29.60;54.15
11395;BME280;5753;54.402;10.220;2022-08-19T01:08:06;101213.56;;;28.17;58.33
11395;BME280;5753;54.402;10.220;2022-08-19T01:10:45;101198.09;;;28.93;56.72
11395;BME280;5753;54.402;10.220;2022-08-19T01:13:15;101199.34;;;29.80;52.73
11395;BME280;5753;54.402;10.220;2022-08-19T01:15:53;101202.88;;;29.65;53.63
11395;BME280;5753;54.402;10.220;2022-08-19T01:18:21;101203.03;;;28.15;59.14
11395;BME280;5753;54.402;10.220;2022-08-19T01:20:49;101200.31;;;28.34;58.71
11395;BME280;5753;54.402;10.220;2022-08-19T01:23:16;101199.53;;;29.14;54.86
11395;BME280;5753;54.402;10.220;2022-08-19T01:25:49;101192.63;;;28.78;56.42
11395;BME280;5753;54.402;10.220;2022-08-19T01:28:20;101187.28;;;30.04;52.46
11395;BME280;5753;54.402;10.220;2022-08-19T01:30:47;101184.31;;;29.79;52.35
11395;BME280;5753;54.402;10.220;2022-08-19T01:33:14;101182.19;;;29.70;52.70
11395;BME280;5753;54.402;10.220;2022-08-19T01:35:41;101190.06;;;28.77;54.77
11395;BME280;5753;54.402;10.220;2022-08-19T01:38:10;101181.06;;;28.13;58.13
11395;BME280;5753;54.402;10.220;2022-08-19T01:40:39;101185.41;;;29.29;54.53
11395;BME280;5753;54.402;10.220;2022-08-19T01:43:06;101185.50;;;29.89;52.15
11395;BME280;5753;54.402;10.220;2022-08-19T01:45:33;101185.00;;;29.83;52.23
11395;BME280;5753;54.402;10.220;2022-08-19T01:48:00;101185.00;;;28.72;55.35
11395;BME280;5753;54.402;10.220;2022-08-19T01:50:27;101186.78;;;29.05;55.40
11395;BME280;5753;54.402;10.220;2022-08-19T01:52:53;101184.34;;;30.23;51.09
11395;BME280;5753;54.402;10.220;2022-08-19T01:55:21;101181.47;;;29.52;53.03
11395;BME280;5753;54.402;10.220;2022-08-19T01:57:53;101179.91;;;29.64;52.61
11395;BME280;5753;54.402;10.220;2022-08-19T02:00:23;101174.78;;;28.49;57.36
11395;BME280;5753;54.402;10.220;2022-08-19T02:02:49;101172.34;;;28.77;56.58
11395;BME280;5753;54.402;10.220;2022-08-19T02:05:15;101171.91;;;28.19;58.79
11395;BME280;5753;54.402;10.220;2022-08-19T02:07:44;101170.00;;;28.56;58.65
11395;BME280;5753;54.402;10.220;2022-08-19T02:10:13;101161.53;;;28.98;55.22
11395;BME280;5753;54.402;10.220;2022-08-19T02:12:40;101156.06;;;28.83;55.52
11395;BME280;5753;54.402;10.220;2022-08-19T02:15:07;101155.22;;;28.83;57.04
11395;BME280;5753;54.402;10.220;2022-08-19T02:17:35;101146.56;;;28.64;56.83
11395;BME280;5753;54.402;10.220;2022-08-19T02:20:01;101156.31;;;28.63;57.87
11395;BME280;5753;54.402;10.220;2022-08-19T02:22:28;101146.31;;;28.02;59.60
11395;BME280;5753;54.402;10.220;2022-08-19T02:24:54;101140.97;;;28.19;59.36
11395;BME280;5753;54.402;10.220;2022-08-19T02:27:21;101137.59;;;29.29;55.56
11395;BME280;5753;54.402;10.220;2022-08-19T02:29:49;101151.41;;;29.36;54.45
11395;BME280;5753;54.402;10.220;2022-08-19T02:32:17;101154.69;;;28.45;57.22
11395;BME280;5753;54.402;10.220;2022-08-19T02:34:44;101146.56;;;29.88;52.51
11395;BME280;5753;54.402;10.220;2022-08-19T02:37:11;101142.84;;;29.15;54.88
11395;BME280;5753;54.402;10.220;2022-08-19T02:39:57;101140.34;;;30.03;51.52
11395;BME280;5753;54.402;10.220;2022-08-19T02:42:23;101158.81;;;29.61;53.40
11395;BME280;5753;54.402;10.220;2022-08-19T02:44:50;101152.06;;;29.85;52.17
11395;BME280;5753;54.402;10.220;2022-08-19T02:47:18;101159.25;;;30.13;51.29
11395;BME280;5753;54.402;10.220;2022-08-19T02:49:45;101156.56;;;29.69;52.18
11395;BME280;5753;54.402;10.220;2022-08-19T02:52:11;101158.53;;;29.81;52.27
11395;BME280;5753;54.402;10.220;2022-08-19T02:54:38;101155.22;;;29.92;52.20
11395;BME280;5753;54.402;10.220;2022-08-19T02:57:05;101158.69;;;30.08;51.26
11395;BME280;5753;54.402;10.220;2022-08-19T02:59:32;101164.16;;;29.29;53.55
11395;BME280;5753;54.402;10.220;2022-08-19T03:01:58;101161.38;;;28.83;55.72
11395;BME280;5753;54.402;10.220;2022-08-19T03:04:24;101161.38;;;29.92;52.03
11395;BME280;5753;54.402;10.220;2022-08-19T03:06:51;101154.00;;;29.67;52.33
11395;BME280;5753;54.402;10.220;2022-08-19T03:09:19;101153.28;;;29.50;54.17
11395;BME280;5753;54.402;10.220;2022-08-19T03:11:45;101149.44;;;29.39;54.90
11395;BME280;5753;54.402;10.220;2022-08-19T03:14:13;101159.41;;;29.96;52.27
11395;BME280;5753;54.402;10.220;2022-08-19T03:16:44;101160.91;;;29.56;54.19
11395;BME280;5753;54.402;10.220;2022-08-19T03:19:11;101157.59;;;29.96;52.11
11395;BME280;5753;54.402;10.220;2022-08-19T03:21:37;101158.97;;;29.43;53.56
11395;BME280;5753;54.402;10.220;2022-08-19T03:24:05;101159.28;;;29.22;54.26
11395;BME280;5753;54.402;10.220;2022-08-19T03:26:33;101162.44;;;30.34;50.96
11395;BME280;5753;54.402;10.220;2022-08-19T03:29:03;101173.84;;;30.64;50.19
11395;BME280;5753;54.402;10.220;2022-08-19T03:31:29;101174.03;;;30.33;50.87
11395;BME280;5753;54.402;10.220;2022-08-19T03:33:57;101173.25;;;30.31;51.04
11395;BME280;5753;54.402;10.220;2022-08-19T03:36:25;101172.31;;;30.60;50.39
11395;BME280;5753;54.402;10.220;2022-08-19T03:39:01;101165.56;;;29.82;53.21
11395;BME280;5753;54.402;10.220;2022-08-19T03:41:38;101165.56;;;30.41;51.40
11395;BME280;5753;54.402;10.220;2022-08-19T03:44:05;101162.69;;;30.58;50.69
11395;BME280;5753;54.402;10.220;2022-08-19T03:46:34;101165.19;;;30.32;51.53
11395;BME280;5753;54.402;10.220;2022-08-19T03:49:02;101162.47;;;29.74;52.77
11395;BME280;5753;54.402;10.220;2022-08-19T03:51:37;101173.25;;;30.74;50.76
11395;BME280;5753;54.402;10.220;2022-08-19T03:54:06;101186.56;;;30.74;50.90
11395;BME280;5753;54.402;10.220;2022-08-19T03:56:35;101192.50;;;30.79;50.93
11395;BME280;5753;54.402;10.220;2022-08-19T03:59:01;101197.09;;;30.32;52.63
11395;BME280;5753;54.402;10.220;2022-08-19T04:01:29;101200.97;;;31.12;50.00
11395;BME280;5753;54.402;10.220;2022-08-19T04:03:56;101208.28;;;31.37;49.48
11395;BME280;5753;54.402;10.220;2022-08-19T04:06:28;101205.75;;;30.50;51.53
11395;BME280;5753;54.402;10.220;2022-08-19T04:08:57;101209.59;;;30.89;50.66
11395;BME280;5753;54.402;10.220;2022-08-19T04:11:36;101210.25;;;30.92;51.16
11395;BME280;5753;54.402;10.220;2022-08-19T04:14:08;101209.19;;;30.95;50.72
11395;BME280;5753;54.402;10.220;2022-08-19T04:16:36;101208.00;;;31.13;49.68
11395;BME280;5753;54.402;10.220;2022-08-19T04:19:04;101203.28;;;30.33;53.28
11395;BME280;5753;54.402;10.220;2022-08-19T04:21:31;101210.50;;;31.16;50.56
11395;BME280;5753;54.402;10.220;2022-08-19T04:23:57;101221.56;;;31.64;49.10
11395;BME280;5753;54.402;10.220;2022-08-19T04:26:27;101222.19;;;31.55;49.09
11395;BME280;5753;54.402;10.220;2022-08-19T04:28:53;101210.38;;;31.59;49.30
11395;BME280;5753;54.402;10.220;2022-08-19T04:31:22;101222.59;;;31.22;50.34
11395;BME280;5753;54.402;10.220;2022-08-19T04:33:52;101219.97;;;30.79;51.84
11395;BME280;5753;54.402;10.220;2022-08-19T04:36:21;101227.41;;;31.71;48.90
11395;BME280;5753;54.402;10.220;2022-08-19T04:38:49;101223.53;;;31.07;50.25
11395;BME280;5753;54.402;10.220;2022-08-19T04:41:16;101233.88;;;30.40;52.01
11395;BME280;5753;54.402;10.220;2022-08-19T04:44:01;101242.47;;;30.74;51.39
11395;BME280;5753;54.402;10.220;2022-08-19T04:46:28;101240.84;;;31.55;49.08
11395;BME280;5753;54.402;10.220;2022-08-19T04:49:00;101235.97;;;31.61;48.14
11395;BME280;5753;54.402;10.220;2022-08-19T04:51:27;101244.13;;;31.46;48.61
11395;BME280;5753;54.402;10.220;2022-08-19T04:53:57;101244.34;;;31.70;47.83
11395;BME280;5753;54.402;10.220;2022-08-19T04:56:23;101243.31;;;31.58;48.05
11395;BME280;5753;54.402;10.220;2022-08-19T04:58:53;101248.28;;;31.50;48.33
11395;BME280;5753;54.402;10.220;2022-08-19T05:01:26;101248.50;;;31.47;48.22
11395;BME280;5753;54.402;10.220;2022-08-19T05:03:52;101248.09;;;31.53;47.80
11395;BME280;5753;54.402;10.220;2022-08-19T05:06:20;101244.53;;;31.93;47.16
11395;BME280;5753;54.402;10.220;2022-08-19T05:08:49;101245.41;;;31.53;47.93
11395;BME280;5753;54.402;10.220;2022-08-19T05:11:28;101250.53;;;31.56;47.85
11395;BME280;5753;54.402;10.220;2022-08-19T05:13:55;101255.72;;;30.45;50.67
11395;BME280;5753;54.402;10.220;2022-08-19T05:16:23;101247.69;;;31.32;48.85
11395;BME280;5753;54.402;10.220;2022-08-19T05:18:50;101242.00;;;31.51;47.86
11395;BME280;5753;54.402;10.220;2022-08-19T05:21:36;101252.16;;;31.58;47.67
11395;BME280;5753;54.402;10.220;2022-08-19T05:24:22;101249.19;;;31.63;47.76
11395;BME280;5753;54.402;10.220;2022-08-19T05:26:50;101250.00;;;31.51;48.32
11395;BME280;5753;54.402;10.220;2022-08-19T05:29:20;101244.41;;;31.41;48.37
11395;BME280;5753;54.402;10.220;2022-08-19T05:31:47;101246.38;;;31.25;48.87
11395;BME280;5753;54.402;10.220;2022-08-19T05:34:18;101244.19;;;31.85;47.70
11395;BME280;5753;54.402;10.220;2022-08-19T05:36:48;101248.88;;;31.68;48.22
11395;BME280;5753;54.402;10.220;2022-08-19T05:39:18;101248.44;;;31.61;49.02
11395;BME280;5753;54.402;10.220;2022-08-19T05:41:53;101255.63;;;32.27;46.91
11395;BME280;5753;54.402;10.220;2022-08-19T05:44:20;101256.88;;;31.68;48.80
11395;BME280;5753;54.402;10.220;2022-08-19T05:46:48;101261.50;;;32.05;47.38
11395;BME280;5753;54.402;10.220;2022-08-19T05:49:15;101271.72;;;31.45;48.81
11395;BME280;5753;54.402;10.220;2022-08-19T05:51:42;101267.19;;;31.33;49.16
11395;BME280;5753;54.402;10.220;2022-08-19T05:54:09;101261.28;;;31.96;47.52
11395;BME280;5753;54.402;10.220;2022-08-19T05:56:37;101257.56;;;31.98;47.44
11395;BME280;5753;54.402;10.220;2022-08-19T05:59:05;101267.22;;;31.86;47.29
11395;BME280;5753;54.402;10.220;2022-08-19T06:01:35;101267.84;;;31.77;47.73
11395;BME280;5753;54.402;10.220;2022-08-19T06:04:02;101266.47;;;31.84;47.34
11395;BME280;5753;54.402;10.220;2022-08-19T06:06:28;101266.41;;;31.99;47.02
11395;BME280;5753;54.402;10.220;2022-08-19T06:08:54;101264.81;;;30.27;51.61
11395;BME280;5753;54.402;10.220;2022-08-19T06:11:28;101267.00;;;31.21;49.27
11395;BME280;5753;54.402;10.220;2022-08-19T06:14:10;101267.00;;;31.07;49.63
11395;BME280;5753;54.402;10.220;2022-08-19T06:16:39;101267.03;;;30.79;50.04
11395;BME280;5753;54.402;10.220;2022-08-19T06:19:08;101270.41;;;31.38;48.66
11395;BME280;5753;54.402;10.220;2022-08-19T06:21:37;101260.19;;;31.44;48.61
11395;BME280;5753;54.402;10.220;2022-08-19T06:24:05;101268.66;;;30.37;51.36
11395;BME280;5753;54.402;10.220;2022-08-19T06:26:34;101263.38;;;31.37;49.04
11395;BME280;5753;54.402;10.220;2022-08-19T06:29:02;101267.03;;;31.48;48.74
11395;BME280;5753;54.402;10.220;2022-08-19T06:31:29;101261.00;;;31.59;48.34
11395;BME280;5753;54.402;10.220;2022-08-19T06:34:00;101263.47;;;31.62;48.12
11395;BME280;5753;54.402;10.220;2022-08-19T06:36:30;101263.84;;;31.97;47.69
11395;BME280;5753;54.402;10.220;2022-08-19T06:39:00;101273.81;;;31.40;48.85
11395;BME280;5753;54.402;10.220;2022-08-19T06:41:28;101259.75;;;31.38;49.53
11395;BME280;5753;54.402;10.220;2022-08-19T06:43:55;101249.88;;;30.68;51.66
11395;BME280;5753;54.402;10.220;2022-08-19T06:46:22;101254.09;;;30.87;51.04
11395;BME280;5753;54.402;10.220;2022-08-19T06:48:49;101255.41;;;28.62;58.63
11395;BME280;5753;54.402;10.220;2022-08-19T06:51:17;101254.31;;;30.39;54.29
11395;BME280;5753;54.402;10.220;2022-08-19T06:53:50;101260.25;;;29.99;55.59
11395;BME280;5753;54.402;10.220;2022-08-19T06:56:21;101260.16;;;30.89;52.86
11395;BME280;5753;54.402;10.220;2022-08-19T06:58:48;101255.22;;;30.68;53.49
11395;BME280;5753;54.402;10.220;2022-08-19T07:01:17;101255.38;;;31.37;51.56
11395;BME280;5753;54.402;10.220;2022-08-19T07:03:44;101260.06;;;30.90;52.15
11395;BME280;5753;54.402;10.220;2022-08-19T07:06:13;101254.63;;;29.26;56.91
11395;BME280;5753;54.402;10.220;2022-08-19T07:08:41;101257.50;;;30.89;53.07
11395;BME280;5753;54.402;10.220;2022-08-19T07:11:10;101270.16;;;31.55;51.00
11395;BME280;5753;54.402;10.220;2022-08-19T07:13:39;101262.53;;;31.08;52.21
11395;BME280;5753;54.402;10.220;2022-08-19T07:16:06;101267.94;;;31.20;50.96
11395;BME280;5753;54.402;10.220;2022-08-19T07:18:33;101276.97;;;32.27;48.43
11395;BME280;5753;54.402;10.220;2022-08-19T07:21:16;101275.25;;;32.39;48.57
11395;BME280;5753;54.402;10.220;2022-08-19T07:23:43;101278.78;;;32.00;48.42
11395;BME280;5753;54.402;10.220;2022-08-19T07:26:21;101282.84;;;32.58;47.56
11395;BME280;5753;54.402;10.220;2022-08-19T07:28:48;101282.94;;;32.43;47.05
11395;BME280;5753;54.402;10.220;2022-08-19T07:31:18;101293.84;;;32.40;47.89
11395;BME280;5753;54.402;10.220;2022-08-19T07:33:45;101291.63;;;32.98;46.52
11395;BME280;5753;54.402;10.220;2022-08-19T07:36:14;101290.88;;;31.64;49.07
11395;BME280;5753;54.402;10.220;2022-08-19T07:38:43;101297.66;;;31.28;49.66
11395;BME280;5753;54.402;10.220;2022-08-19T07:41:12;101298.94;;;31.07;50.69
11395;BME280;5753;54.402;10.220;2022-08-19T07:43:39;101293.28;;;31.27;50.24
11395;BME280;5753;54.402;10.220;2022-08-19T07:46:06;101302.91;;;30.72;51.95
11395;BME280;5753;54.402;10.220;2022-08-19T07:48:32;101293.28;;;30.25;53.35
11395;BME280;5753;54.402;10.220;2022-08-19T07:51:02;101288.66;;;29.83;53.69
11395;BME280;5753;54.402;10.220;2022-08-19T07:53:30;101295.91;;;31.13;50.59
11395;BME280;5753;54.402;10.220;2022-08-19T07:55:56;101296.94;;;31.39;49.76
11395;BME280;5753;54.402;10.220;2022-08-19T07:58:34;101299.13;;;31.04;51.38
11395;BME280;5753;54.402;10.220;2022-08-19T08:01:01;101299.13;;;31.47;49.33
11395;BME280;5753;54.402;10.220;2022-08-19T08:03:28;101302.75;;;30.89;51.46
11395;BME280;5753;54.402;10.220;2022-08-19T08:06:14;101313.47;;;30.29;53.81
11395;BME280;5753;54.402;10.220;2022-08-19T08:09:01;101322.44;;;30.86;51.50
11395;BME280;5753;54.402;10.220;2022-08-19T08:11:57;101311.66;;;30.74;52.45
11395;BME280;5753;54.402;10.220;2022-08-19T08:15:08;101310.34;;;31.09;51.21
11395;BME280;5753;54.402;10.220;2022-08-19T08:17:16;101309.06;;;29.02;57.55
11395;BME280;5753;54.402;10.220;2022-08-19T08:19:44;101311.44;;;28.91;60.10
11395;BME280;5753;54.402;10.220;2022-08-19T08:22:13;101306.88;;;30.20;54.48
11395;BME280;5753;54.402;10.220;2022-08-19T08:25:11;101314.13;;;29.87;55.55
11395;BME280;5753;54.402;10.220;2022-08-19T08:27:39;101318.94;;;29.80;56.69
11395;BME280;5753;54.402;10.220;2022-08-19T08:30:11;101317.41;;;30.22;54.29
11395;BME280;5753;54.402;10.220;2022-08-19T08:32:39;101328.06;;;28.42;60.46
11395;BME280;5753;54.402;10.220;2022-08-19T08:35:06;101323.13;;;29.84;56.16
11395;BME280;5753;54.402;10.220;2022-08-19T08:37:34;101333.13;;;28.99;58.46
11395;BME280;5753;54.402;10.220;2022-08-19T08:40:42;101339.50;;;29.61;55.92
11395;BME280;5753;54.402;10.220;2022-08-19T08:43:09;101339.78;;;28.38;60.16
11395;BME280;5753;54.402;10.220;2022-08-19T08:45:46;101341.38;;;28.24;64.43
11395;BME280;5753;54.402;10.220;2022-08-19T08:48:45;101337.25;;;29.69;56.80
11395;BME280;5753;54.402;10.220;2022-08-19T08:51:18;101326.63;;;30.00;55.53
11395;BME280;5753;54.402;10.220;2022-08-19T08:53:47;101337.16;;;30.18;54.37
11395;BME280;5753;54.402;10.220;2022-08-19T08:56:15;101336.81;;;30.98;52.42
11395;BME280;5753;54.402;10.220;2022-08-19T08:59:07;101345.41;;;31.31;50.43
11395;BME280;5753;54.402;10.220;2022-08-19T09:01:35;101340.88;;;31.60;49.87
11395;BME280;5753;54.402;10.220;2022-08-19T09:04:06;101337.66;;;31.55;49.69
11395;BME280;5753;54.402;10.220;2022-08-19T09:09:42;101343.47;;;31.05;50.33
11395;BME280;5753;54.402;10.220;2022-08-19T09:15:06;101332.50;;;31.52;49.13
11395;BME280;5753;54.402;10.220;2022-08-19T09:17:34;101346.91;;;30.63;51.30
11395;BME280;5753;54.402;10.220;2022-08-19T09:22:37;101338.78;;;31.09;51.16
11395;BME280;5753;54.402;10.220;2022-08-19T09:25:06;101336.72;;;31.71;49.45
11395;BME280;5753;54.402;10.220;2022-08-19T09:27:33;101336.63;;;31.72;49.51
11395;BME280;5753;54.402;10.220;2022-08-19T09:30:02;101342.06;;;31.69;49.29
11395;BME280;5753;54.402;10.220;2022-08-19T09:32:28;101345.16;;;31.06;49.81
11395;BME280;5753;54.402;10.220;2022-08-19T09:34:54;101344.75;;;31.69;49.14
11395;BME280;5753;54.402;10.220;2022-08-19T09:37:21;101350.00;;;30.55;51.63
11395;BME280;5753;54.402;10.220;2022-08-19T09:39:48;101352.19;;;29.56;55.59
11395;BME280;5753;54.402;10.220;2022-08-19T09:42:14;101353.72;;;30.83;51.88
11395;BME280;5753;54.402;10.220;2022-08-19T09:44:41;101353.00;;;30.35;51.98
11395;BME280;5753;54.402;10.220;2022-08-19T09:47:08;101359.31;;;31.22;50.32
11395;BME280;5753;54.402;10.220;2022-08-19T09:49:35;101359.63;;;30.58;51.87
11395;BME280;5753;54.402;10.220;2022-08-19T09:52:02;101360.84;;;29.26;57.79
11395;BME280;5753;54.402;10.220;2022-08-19T09:54:28;101361.78;;;28.92;58.09
11395;BME280;5753;54.402;10.220;2022-08-19T09:56:55;101363.41;;;30.54;53.10
11395;BME280;5753;54.402;10.220;2022-08-19T09:59:23;101356.28;;;31.13;50.42
11395;BME280;5753;54.402;10.220;2022-08-19T10:01:50;101351.56;;;30.29;53.32
11395;BME280;5753;54.402;10.220;2022-08-19T10:04:17;101349.66;;;31.20;50.60
11395;BME280;5753;54.402;10.220;2022-08-19T10:06:43;101352.88;;;29.91;54.60
11395;BME280;5753;54.402;10.220;2022-08-19T10:09:10;101347.44;;;30.54;52.53
11395;BME280;5753;54.402;10.220;2022-08-19T10:11:39;101353.41;;;30.73;52.30
11395;BME280;5753;54.402;10.220;2022-08-19T10:14:06;101356.56;;;31.65;49.12
11395;BME280;5753;54.402;10.220;2022-08-19T10:16:33;101358.44;;;31.91;48.65
11395;BME280;5753;54.402;10.220;2022-08-19T10:19:01;101347.78;;;30.63;52.16
11395;BME280;5753;54.402;10.220;2022-08-19T10:21:30;101349.59;;;30.33;52.71
11395;BME280;5753;54.402;10.220;2022-08-19T10:23:59;101347.78;;;31.22;50.11
11395;BME280;5753;54.402;10.220;2022-08-19T10:26:28;101352.38;;;31.61;49.54
11395;BME280;5753;54.402;10.220;2022-08-19T10:28:56;101356.25;;;28.45;60.30
11395;BME280;5753;54.402;10.220;2022-08-19T10:31:25;101358.25;;;28.04;62.61
11395;BME280;5753;54.402;10.220;2022-08-19T10:33:52;101353.38;;;29.97;55.34
11395;BME280;5753;54.402;10.220;2022-08-19T10:36:25;101351.31;;;30.18;54.70
11395;BME280;5753;54.402;10.220;2022-08-19T10:38:53;101345.63;;;30.40;54.75
11395;BME280;5753;54.402;10.220;2022-08-19T10:41:23;101346.13;;;31.76;50.20
11395;BME280;5753;54.402;10.220;2022-08-19T10:43:54;101344.59;;;30.87;51.29
11395;BME280;5753;54.402;10.220;2022-08-19T10:46:22;101348.81;;;31.19;50.48
11395;BME280;5753;54.402;10.220;2022-08-19T10:48:49;101346.41;;;30.56;53.27
11395;BME280;5753;54.402;10.220;2022-08-19T10:51:16;101347.66;;;31.52;50.39
11395;BME280;5753;54.402;10.220;2022-08-19T10:54:01;101344.22;;;31.50;50.14
11395;BME280;5753;54.402;10.220;2022-08-19T10:56:28;101346.00;;;30.48;52.48
11395;BME280;5753;54.402;10.220;2022-08-19T10:59:14;101339.31;;;30.71;52.20
11395;BME280;5753;54.402;10.220;2022-08-19T11:01:42;101340.84;;;30.31;53.75
11395;BME280;5753;54.402;10.220;2022-08-19T11:04:08;101342.59;;;30.46;52.82
11395;BME280;5753;54.402;10.220;2022-08-19T11:06:37;101347.06;;;31.75;50.06
11395;BME280;5753;54.402;10.220;2022-08-19T11:09:04;101341.94;;;30.27;53.13
11395;BME280;5753;54.402;10.220;2022-08-19T11:11:32;101336.50;;;31.74;50.51
11395;BME280;5753;54.402;10.220;2022-08-19T11:13:58;101340.25;;;31.43;50.91
11395;BME280;5753;54.402;10.220;2022-08-19T11:16:26;101344.78;;;31.12;51.68
11395;BME280;5753;54.402;10.220;2022-08-19T11:18:56;101341.59;;;31.36;49.83
11395;BME280;5753;54.402;10.220;2022-08-19T11:21:28;101345.69;;;31.68;50.14
11395;BME280;5753;54.402;10.220;2022-08-19T11:24:00;101346.75;;;31.24;50.10
11395;BME280;5753;54.402;10.220;2022-08-19T11:26:28;101349.66;;;32.83;46.68
11395;BME280;5753;54.402;10.220;2022-08-19T11:28:56;101345.50;;;33.66;44.95
11395;BME280;5753;54.402;10.220;2022-08-19T11:31:29;101343.19;;;31.93;48.29
11395;BME280;5753;54.402;10.220;2022-08-19T11:34:01;101339.75;;;32.58;46.99
11395;BME280;5753;54.402;10.220;2022-08-19T11:36:29;101339.19;;;33.67;44.33
11395;BME280;5753;54.402;10.220;2022-08-19T11:38:55;101331.84;;;32.31;46.90
11395;BME280;5753;54.402;10.220;2022-08-19T11:41:23;101337.97;;;32.19;47.37
11395;BME280;5753;54.402;10.220;2022-08-19T11:43:51;101341.19;;;31.97;47.55
11395;BME280;5753;54.402;10.220;2022-08-19T11:46:18;101332.59;;;31.51;48.82
11395;BME280;5753;54.402;10.220;2022-08-19T11:48:45;101337.03;;;31.23;50.04
11395;BME280;5753;54.402;10.220;2022-08-19T11:51:13;101340.59;;;31.79;48.74
11395;BME280;5753;54.402;10.220;2022-08-19T11:53:40;101336.50;;;32.01;47.71
11395;BME280;5753;54.402;10.220;2022-08-19T11:56:08;101333.34;;;32.61;46.37
11395;BME280;5753;54.402;10.220;2022-08-19T11:58:34;101338.81;;;31.37;49.10
11395;BME280;5753;54.402;10.220;2022-08-19T12:01:01;101339.88;;;31.20;48.85
11395;BME280;5753;54.402;10.220;2022-08-19T12:03:27;101339.66;;;30.95;49.72
11395;BME280;5753;54.402;10.220;2022-08-19T12:05:54;101341.41;;;31.39;49.03
11395;BME280;5753;54.402;10.220;2022-08-19T12:08:20;101347.13;;;31.33;48.88
11395;BME280;5753;54.402;10.220;2022-08-19T12:10:46;101345.50;;;30.72;50.10
11395;BME280;5753;54.402;10.220;2022-08-19T12:13:13;101342.41;;;30.79;50.59
11395;BME280;5753;54.402;10.220;2022-08-19T12:15:45;101347.19;;;30.28;51.00
11395;BME280;5753;54.402;10.220;2022-08-19T12:18:11;101344.31;;;29.86;52.16
11395;BME280;5753;54.402;10.220;2022-08-19T12:20:41;101345.06;;;30.49;51.59
11395;BME280;5753;54.402;10.220;2022-08-19T12:23:09;101349.50;;;30.64;52.30
11395;BME280;5753;54.402;10.220;2022-08-19T12:25:36;101344.41;;;32.02;47.68
11395;BME280;5753;54.402;10.220;2022-08-19T12:28:03;101340.06;;;31.31;49.84
11395;BME280;5753;54.402;10.220;2022-08-19T12:30:30;101343.44;;;31.62;48.99
11395;BME280;5753;54.402;10.220;2022-08-19T12:32:56;101337.56;;;31.00;50.53
11395;BME280;5753;54.402;10.220;2022-08-19T12:35:22;101346.97;;;31.77;48.17
11395;BME280;5753;54.402;10.220;2022-08-19T12:37:48;101350.31;;;30.05;52.31
11395;BME280;5753;54.402;10.220;2022-08-19T12:40:18;101351.41;;;30.47;51.43
11395;BME280;5753;54.402;10.220;2022-08-19T12:42:44;101344.69;;;31.98;47.93
11395;BME280;5753;54.402;10.220;2022-08-19T12:45:12;101343.81;;;32.64;46.16
11395;BME280;5753;54.402;10.220;2022-08-19T12:47:39;101341.97;;;32.91;45.35
11395;BME280;5753;54.402;10.220;2022-08-19T12:50:06;101348.50;;;32.60;46.09
11395;BME280;5753;54.402;10.220;2022-08-19T12:52:35;101336.38;;;33.20;44.67
11395;BME280;5753;54.402;10.220;2022-08-19T12:55:08;101341.84;;;33.18;44.19
11395;BME280;5753;54.402;10.220;2022-08-19T12:57:34;101343.19;;;33.49;43.74
11395;BME280;5753;54.402;10.220;2022-08-19T13:00:22;101337.78;;;33.74;43.14
11395;BME280;5753;54.402;10.220;2022-08-19T13:02:51;101336.16;;;33.23;43.59
11395;BME280;5753;54.402;10.220;2022-08-19T13:05:24;101335.38;;;33.46;43.18
11395;BME280;5753;54.402;10.220;2022-08-19T13:07:52;101338.94;;;33.34;43.32
11395;BME280;5753;54.402;10.220;2022-08-19T13:10:21;101345.81;;;33.12;43.51